Aviation Digital Data Service (ADDS)

Output produced by METARs form (0213 UTC 17 August 2018)
found at http://www.aviationweather.gov/adds/metars/
 
NSFA 162200Z 05010KT 9999 SCT018 SCT040 BKN140 27/25 Q1013
NSFA 162100Z 00000KT 9999 SCT022TCU 29/25 Q1013 RMK TCU TO NNE
NSFA 161700Z 11004KT 9999 FEW020 24/23 Q1011 NOSIG
NSFA 161600Z 00000KT 9999 FEW020 SCT060 24/23 Q1011
NSFA 161100Z 00000KT 9999 FEW022 BKN120 25/24 Q1013
NSFA 160800Z 09003KT 9999 VCSH SCT020 BKN040 25/24 Q1012 RERA
NSFA 160300Z 06012KT 9999 SCT026 31/24 Q1010